Time;durP1;ratioP1;P1;durP2;ratioP2;P2;SDS_P1;SDS_P2;PMS_P1;PMS_P2;Temp;Humidity;BMP_temperature;BMP_pressure;BME280_temperature;BME280_humidity;BME280_pressure;Samples;Min_cycle;Max_cycle;Signal;HPM_P1;HPM_P2
2023/11/28 00:00:13;;;;;;;11.87;6.87;;;1.10;99.90;0.90;98469.00;;;;4947957;28;118245;-69
2023/11/28 00:02:39;;;;;;;13.07;7.50;;;1.30;99.90;0.80;98456.00;;;;4952524;28;103800;-69
2023/11/28 00:05:05;;;;;;;7.20;6.50;;;1.10;99.90;0.80;98447.00;;;;4950390;28;94944;-70
2023/11/28 00:07:33;;;;;;;12.43;6.40;;;1.20;99.90;0.80;98452.00;;;;4953747;28;88792;-69
2023/11/28 00:10:03;;;;;;;17.93;9.87;;;1.10;99.90;0.80;98444.00;;;;4952621;28;88906;-71
2023/11/28 00:12:29;;;;;;;11.90;8.03;;;1.10;99.90;0.80;98449.00;;;;4948880;28;89316;-70
2023/11/28 00:14:55;;;;;;;12.33;7.70;;;1.10;99.90;0.80;98446.00;;;;4952614;28;109802;-69
2023/11/28 00:17:20;;;;;;;15.23;9.23;;;1.10;99.90;0.80;98437.00;;;;4953794;28;88138;-69
2023/11/28 00:19:46;;;;;;;13.27;8.77;;;1.10;99.90;0.80;98434.00;;;;4951714;28;97493;-68
2023/11/28 00:22:12;;;;;;;16.07;8.90;;;1.10;99.90;0.70;98436.00;;;;4952084;28;116395;-68
2023/11/28 00:24:37;;;;;;;11.33;8.47;;;1.00;99.90;0.80;98444.00;;;;4950455;28;87174;-69
2023/11/28 00:27:03;;;;;;;12.40;8.53;;;1.10;99.90;0.80;98443.00;;;;4952474;28;109179;-69
2023/11/28 00:29:29;;;;;;;14.37;9.00;;;1.10;99.90;0.70;98434.00;;;;4956269;28;88958;-68
2023/11/28 00:31:55;;;;;;;11.23;8.63;;;1.00;99.90;0.80;98417.00;;;;4949285;28;101118;-69
2023/11/28 00:34:24;;;;;;;13.03;9.00;;;1.10;99.90;0.70;98421.00;;;;4953232;28;107997;-68
2023/11/28 00:36:49;;;;;;;15.63;8.43;;;1.00;99.90;0.70;98417.00;;;;4956668;28;88084;-69
2023/11/28 00:39:15;;;;;;;13.27;8.70;;;1.70;99.90;0.70;98428.00;;;;4950449;28;103004;-68
2023/11/28 00:41:41;;;;;;;8.73;6.87;;;1.10;99.90;0.80;98424.00;;;;4951871;28;87939;-69
2023/11/28 00:44:06;;;;;;;15.60;8.83;;;0.40;99.90;0.70;98413.00;;;;4947560;28;108716;-70
2023/11/28 00:46:32;;;;;;;12.67;7.63;;;1.00;99.90;0.70;98421.00;;;;4952042;28;108294;-71
2023/11/28 00:49:01;;;;;;;15.07;8.40;;;0.90;99.90;0.70;98425.00;;;;4956182;28;88040;-68
2023/11/28 00:51:26;;;;;;;13.20;8.03;;;1.10;99.90;0.70;98410.00;;;;4952143;28;94728;-70
2023/11/28 00:53:52;;;;;;;10.73;8.03;;;1.00;99.90;0.70;98413.00;;;;4956932;28;98103;-68
2023/11/28 00:56:19;;;;;;;14.67;9.33;;;1.00;99.90;0.70;98414.00;;;;4950762;28;107008;-68
2023/11/28 00:58:46;;;;;;;11.33;7.57;;;1.00;99.90;0.70;98412.00;;;;4954872;28;88667;-68
2023/11/28 01:01:13;;;;;;;17.40;10.50;;;0.90;99.90;0.70;98417.00;;;;4955115;28;87773;-68
2023/11/28 01:03:39;;;;;;;10.40;7.80;;;0.90;99.90;0.70;98418.00;;;;4953927;28;88093;-68
2023/11/28 01:06:07;;;;;;;13.60;8.60;;;0.90;99.90;0.60;98403.00;;;;4951556;28;108702;-68
2023/11/28 01:08:34;;;;;;;10.87;7.90;;;0.90;99.90;0.60;98402.00;;;;4953889;28;88466;-67
2023/11/28 01:11:00;;;;;;;16.43;9.87;;;1.00;99.90;0.60;98413.00;;;;4952826;28;87960;-67
2023/11/28 01:13:25;;;;;;;11.93;8.63;;;1.00;99.90;0.60;98406.00;;;;4953020;28;92066;-67
2023/11/28 01:15:51;;;;;;;17.87;9.70;;;1.00;99.90;0.60;98408.00;;;;4956819;28;107898;-68
2023/11/28 01:18:17;;;;;;;13.70;9.10;;;0.80;99.90;0.60;98398.00;;;;4953055;28;117166;-67
2023/11/28 01:20:44;;;;;;;12.40;9.20;;;0.90;99.90;0.60;98400.00;;;;4951164;28;118154;-66
2023/11/28 01:23:09;;;;;;;14.30;8.63;;;0.80;99.90;0.60;98396.00;;;;4954459;28;87697;-68
2023/11/28 01:25:35;;;;;;;14.67;8.57;;;0.80;99.90;0.60;98400.00;;;;4953777;28;108811;-67
2023/11/28 01:28:01;;;;;;;14.53;8.97;;;0.90;99.90;0.60;98407.00;;;;4953594;28;117609;-66
2023/11/28 01:30:26;;;;;;;10.37;8.97;;;0.90;99.90;0.60;98400.00;;;;4949544;28;117708;-66
2023/11/28 01:32:52;;;;;;;13.57;7.47;;;1.00;99.90;0.60;98402.00;;;;4952538;28;110228;-67
2023/11/28 01:35:18;;;;;;;12.93;7.23;;;0.80;99.90;0.60;98396.00;;;;4950439;28;109352;-66
2023/11/28 01:37:43;;;;;;;11.47;7.80;;;0.90;99.90;0.50;98386.00;;;;4950071;28;97231;-68
2023/11/28 01:40:10;;;;;;;16.80;8.33;;;0.90;99.90;0.50;98398.00;;;;4952395;28;119936;-69
2023/11/28 01:42:36;;;;;;;9.13;7.07;;;0.80;99.90;0.50;98384.00;;;;4953376;28;88105;-69
2023/11/28 01:45:01;;;;;;;8.80;6.67;;;0.90;99.90;0.50;98384.00;;;;4950972;28;88507;-69
2023/11/28 01:47:27;;;;;;;12.90;8.27;;;0.90;99.90;0.50;98380.00;;;;4951581;28;89132;-69
2023/11/28 01:49:53;;;;;;;10.17;6.73;;;1.20;99.90;0.50;98384.00;;;;4949381;28;94876;-70
2023/11/28 01:52:20;;;;;;;13.90;7.50;;;0.60;99.90;0.50;98381.00;;;;4949615;28;110420;-70
2023/11/28 01:54:46;;;;;;;15.13;8.43;;;1.50;99.90;0.50;98382.00;;;;4949947;28;107399;-70
2023/11/28 01:57:12;;;;;;;14.80;7.50;;;0.80;99.90;0.50;98370.00;;;;4954366;28;88452;-69
2023/11/28 01:59:40;;;;;;;12.20;7.60;;;0.80;99.90;0.40;98371.00;;;;4954631;28;115955;-70
2023/11/28 02:02:08;;;;;;;12.90;7.70;;;0.70;99.90;0.40;98359.00;;;;4949324;28;87192;-69
2023/11/28 02:04:34;;;;;;;13.60;8.80;;;0.70;99.90;0.40;98362.00;;;;4956874;28;87953;-71
2023/11/28 02:07:00;;;;;;;10.80;6.17;;;0.70;99.90;0.40;98369.00;;;;4949552;28;88607;-71
2023/11/28 02:09:27;;;;;;;11.87;7.87;;;0.80;99.90;0.40;98360.00;;;;4940559;28;116708;-72
2023/11/28 02:11:52;;;;;;;10.67;6.80;;;0.70;99.90;0.40;98352.00;;;;4953296;28;109238;-71
2023/11/28 02:14:19;;;;;;;8.87;6.97;;;1.50;99.90;0.40;98355.00;;;;4950483;28;108664;-72
2023/11/28 02:16:45;;;;;;;11.83;7.80;;;0.80;99.90;0.40;98353.00;;;;4954789;28;116778;-73
2023/11/28 02:19:10;;;;;;;12.77;7.67;;;0.80;99.90;0.40;98346.00;;;;4958616;28;88388;-73
2023/11/28 02:21:36;;;;;;;11.37;7.17;;;0.70;99.90;0.40;98350.00;;;;4948945;28;109863;-77
2023/11/28 02:24:04;;;;;;;13.33;6.57;;;0.70;99.90;0.30;98352.00;;;;4948829;28;109258;-76
2023/11/28 02:26:30;;;;;;;9.93;6.97;;;1.90;99.90;0.30;98355.00;;;;4937384;28;88978;-73
2023/11/28 02:28:56;;;;;;;14.50;8.23;;;0.70;99.90;0.40;98348.00;;;;4956653;28;99927;-72
2023/11/28 02:31:22;;;;;;;9.27;6.90;;;0.70;99.90;0.30;98346.00;;;;4953842;28;92425;-71
2023/11/28 02:33:49;;;;;;;8.50;5.93;;;0.70;99.90;0.40;98344.00;;;;4953180;28;110323;-71
2023/11/28 02:36:14;;;;;;;13.10;7.17;;;0.80;99.90;0.30;98347.00;;;;4950898;28;89180;-73
2023/11/28 02:38:41;;;;;;;12.03;7.67;;;0.60;99.90;0.30;98337.00;;;;4950579;28;95340;-74
2023/11/28 02:41:07;;;;;;;12.60;8.83;;;0.70;99.90;0.30;98344.00;;;;4951807;28;100618;-73
2023/11/28 02:43:33;;;;;;;15.03;7.40;;;0.60;99.90;0.30;98344.00;;;;4955126;28;108923;-70
2023/11/28 02:45:58;;;;;;;12.10;8.40;;;0.60;99.90;0.30;98345.00;;;;4954800;28;118666;-70
2023/11/28 02:48:24;;;;;;;12.33;8.17;;;0.70;99.90;0.40;98343.00;;;;4948456;28;87875;-69
2023/11/28 02:50:50;;;;;;;8.03;6.23;;;0.70;99.90;0.30;98332.00;;;;4943023;28;110413;-69
2023/11/28 02:53:19;;;;;;;13.30;7.50;;;0.70;99.90;0.30;98334.00;;;;4947420;28;107799;-69
2023/11/28 02:55:45;;;;;;;12.67;6.73;;;0.70;99.90;0.30;98335.00;;;;4955993;28;87945;-69
2023/11/28 02:58:10;;;;;;;11.83;7.43;;;0.60;99.90;0.30;98331.00;;;;4948688;28;116221;-69
2023/11/28 03:00:36;;;;;;;12.47;7.53;;;0.70;99.90;0.30;98330.00;;;;4955220;28;94445;-70
2023/11/28 03:03:02;;;;;;;12.63;7.80;;;0.60;99.90;0.30;98325.00;;;;4952678;28;108317;-69
2023/11/28 03:05:28;;;;;;;13.83;7.53;;;1.60;99.90;0.40;98333.00;;;;4952714;28;88217;-69
2023/11/28 03:07:54;;;;;;;9.60;6.47;;;0.70;99.90;0.30;98322.00;;;;4949952;28;88215;-70
2023/11/28 03:10:20;;;;;;;9.07;6.53;;;0.70;99.90;0.30;98321.00;;;;4949609;28;110587;-71
2023/11/28 03:12:45;;;;;;;13.30;7.40;;;0.60;99.90;0.30;98335.00;;;;4951507;28;109339;-70
2023/11/28 03:15:11;;;;;;;13.27;7.03;;;0.60;99.90;0.30;98326.00;;;;4952865;28;117882;-70
2023/11/28 03:17:37;;;;;;;14.63;7.80;;;0.60;99.90;0.30;98322.00;;;;4955657;28;87762;-70
2023/11/28 03:20:04;;;;;;;10.80;6.90;;;0.60;99.90;0.30;98319.00;;;;4953850;28;106564;-70
2023/11/28 03:22:30;;;;;;;9.07;6.30;;;0.50;99.90;0.30;98322.00;;;;4951243;28;88741;-70
2023/11/28 03:25:07;;;;;;;14.43;8.13;;;0.70;99.90;0.30;98316.00;;;;4953123;28;99737;-69
2023/11/28 03:27:33;;;;;;;8.80;7.50;;;0.60;99.90;0.20;98327.00;;;;4948510;28;88047;-69
2023/11/28 03:29:59;;;;;;;11.83;7.43;;;0.50;99.90;0.20;98321.00;;;;4949105;28;87762;-69
2023/11/28 03:32:25;;;;;;;19.97;7.67;;;0.80;99.90;0.20;98312.00;;;;4950532;28;100152;-69
2023/11/28 03:34:50;;;;;;;10.63;7.50;;;0.60;99.90;0.20;98307.00;;;;4951558;28;115868;-71
2023/11/28 03:37:16;;;;;;;11.47;7.27;;;0.60;99.90;0.20;98306.00;;;;4953949;28;116962;-70
2023/11/28 03:39:42;;;;;;;10.13;6.77;;;0.60;99.90;0.20;98297.00;;;;4956854;28;109350;-70
2023/11/28 03:42:08;;;;;;;12.57;8.13;;;0.60;99.90;0.20;98307.00;;;;4951778;28;88720;-68
2023/11/28 03:44:33;;;;;;;9.97;7.00;;;0.60;99.90;0.30;98312.00;;;;4950580;28;117138;-69
2023/11/28 03:46:59;;;;;;;9.97;7.97;;;0.50;99.90;0.20;98312.00;;;;4949439;28;117659;-69
2023/11/28 03:49:24;;;;;;;10.57;6.77;;;0.70;99.90;0.30;98315.00;;;;4952878;28;93592;-68
2023/11/28 03:51:50;;;;;;;11.80;8.63;;;0.60;99.90;0.30;98316.00;;;;4950149;28;107979;-68
2023/11/28 03:54:16;;;;;;;12.97;7.97;;;0.60;99.90;0.20;98312.00;;;;4957887;28;116642;-68
2023/11/28 03:56:43;;;;;;;11.33;6.53;;;0.60;99.90;0.20;98314.00;;;;4954603;28;115824;-67
2023/11/28 03:59:09;;;;;;;7.23;5.57;;;0.60;99.90;0.20;98313.00;;;;4955477;28;87939;-68
2023/11/28 04:01:34;;;;;;;11.90;7.23;;;0.50;99.90;0.30;98318.00;;;;4957300;28;88010;-69
2023/11/28 04:04:00;;;;;;;9.60;6.67;;;0.60;99.90;0.20;98307.00;;;;4959038;28;88141;-69
2023/11/28 04:06:26;;;;;;;11.27;7.47;;;0.60;99.90;0.20;98312.00;;;;4956124;28;116096;-68
2023/11/28 04:08:53;;;;;;;11.03;7.00;;;0.50;99.90;0.20;98315.00;;;;4951205;28;88653;-68
2023/11/28 04:11:19;;;;;;;10.80;6.97;;;0.60;99.90;0.20;98310.00;;;;4954892;28;89249;-67
2023/11/28 04:13:45;;;;;;;12.03;7.70;;;0.60;99.90;0.20;98309.00;;;;4957082;28;88606;-67
2023/11/28 04:16:18;;;;;;;7.63;6.37;;;0.00;99.90;0.20;98316.00;;;;4951608;28;97177;-68
2023/11/28 04:18:51;;;;;;;13.03;6.93;;;0.50;99.90;0.20;98316.00;;;;4952547;28;87718;-66
2023/11/28 04:21:19;;;;;;;10.07;7.03;;;0.50;99.90;0.20;98319.00;;;;4958422;28;87984;-68
2023/11/28 04:23:45;;;;;;;13.57;7.13;;;0.50;99.90;0.20;98312.00;;;;4954240;28;88221;-69
2023/11/28 04:26:12;;;;;;;13.77;7.80;;;0.50;99.90;0.10;98316.00;;;;4951719;28;90468;-66
2023/11/28 04:28:37;;;;;;;9.50;7.13;;;0.50;99.90;0.10;98322.00;;;;4960004;28;87152;-68
2023/11/28 04:31:03;;;;;;;14.70;7.47;;;0.40;99.90;0.10;98316.00;;;;4953786;28;107944;-68
2023/11/28 04:33:29;;;;;;;10.53;7.60;;;0.40;99.90;0.10;98319.00;;;;4953651;28;98833;-67
2023/11/28 04:35:55;;;;;;;10.87;6.97;;;0.40;99.90;0.10;98327.00;;;;4946327;28;88856;-67
2023/11/28 04:38:22;;;;;;;13.67;8.63;;;0.40;99.90;0.10;98315.00;;;;4949420;28;87733;-67
2023/11/28 04:40:47;;;;;;;11.93;7.67;;;0.40;99.90;0.00;98323.00;;;;4950655;28;88006;-68
2023/11/28 04:43:13;;;;;;;12.80;9.23;;;0.30;99.90;0.00;98317.00;;;;4952614;28;118999;-68
2023/11/28 04:45:38;;;;;;;12.87;7.67;;;0.50;99.90;0.00;98324.00;;;;4948770;28;91288;-67
2023/11/28 04:48:04;;;;;;;16.77;10.57;;;0.30;99.90;0.00;98324.00;;;;4949532;28;110820;-67
2023/11/28 04:50:30;;;;;;;12.67;9.33;;;0.30;99.90;0.00;98325.00;;;;4965919;28;87869;-68
2023/11/28 04:52:56;;;;;;;10.70;8.27;;;0.30;99.90;0.00;98319.00;;;;4955910;28;117533;-67
2023/11/28 04:55:21;;;;;;;17.00;8.77;;;0.40;99.90;0.00;98324.00;;;;4947908;28;116697;-68
2023/11/28 04:57:47;;;;;;;12.00;9.00;;;0.40;99.90;0.00;98323.00;;;;4950466;28;110652;-69
2023/11/28 05:00:13;;;;;;;15.83;9.80;;;0.30;99.90;-0.10;98321.00;;;;4951544;28;109125;-67
2023/11/28 05:02:39;;;;;;;15.97;8.80;;;0.30;99.90;-0.10;98324.00;;;;4950438;28;109728;-67
2023/11/28 05:05:07;;;;;;;13.37;10.03;;;0.40;99.90;-0.10;98319.00;;;;4949967;28;88270;-68
2023/11/28 05:07:34;;;;;;;13.40;8.37;;;0.30;99.90;-0.10;98331.00;;;;4953611;28;87943;-68
2023/11/28 05:09:59;;;;;;;16.03;9.57;;;0.30;99.90;-0.10;98319.00;;;;4947880;28;87991;-68
2023/11/28 05:12:25;;;;;;;12.57;8.43;;;0.20;99.90;-0.10;98335.00;;;;4949503;28;110124;-68
2023/11/28 05:14:51;;;;;;;11.23;8.93;;;0.20;99.90;-0.10;98321.00;;;;4947803;28;102098;-67
2023/11/28 05:17:17;;;;;;;15.43;9.30;;;0.30;99.90;-0.10;98332.00;;;;4950116;28;87086;-68
2023/11/28 05:19:42;;;;;;;15.30;8.67;;;0.20;99.90;-0.10;98325.00;;;;4950769;28;88159;-69
2023/11/28 05:22:08;;;;;;;12.27;9.10;;;0.20;99.90;-0.20;98327.00;;;;4948157;28;117268;-67
2023/11/28 05:24:34;;;;;;;19.07;9.43;;;0.20;99.90;-0.20;98325.00;;;;4947392;28;88828;-66
2023/11/28 05:26:59;;;;;;;14.90;9.10;;;0.20;99.90;-0.20;98335.00;;;;4948124;28;110438;-67
2023/11/28 05:29:25;;;;;;;16.77;9.70;;;0.40;99.90;-0.20;98332.00;;;;4908202;28;1112144;-68
2023/11/28 05:31:52;;;;;;;12.63;8.07;;;0.20;99.90;-0.20;98335.00;;;;4936004;28;89648;-67
2023/11/28 05:34:17;;;;;;;12.23;8.90;;;0.30;99.90;-0.20;98335.00;;;;4949840;28;116534;-68
2023/11/28 05:36:43;;;;;;;14.53;9.23;;;0.10;99.90;-0.20;98331.00;;;;4947292;28;87921;-68
2023/11/28 05:39:09;;;;;;;16.50;9.80;;;0.20;99.90;-0.20;98327.00;;;;4948559;28;96498;-68
2023/11/28 05:41:35;;;;;;;16.90;9.83;;;0.20;99.90;-0.30;98332.00;;;;4947650;28;98082;-67
2023/11/28 05:44:02;;;;;;;14.33;8.87;;;0.10;99.90;-0.30;98333.00;;;;4946238;28;116694;-66
2023/11/28 05:46:28;;;;;;;12.83;9.17;;;0.20;99.90;-0.20;98330.00;;;;4951886;28;88140;-69
2023/11/28 05:48:54;;;;;;;15.10;9.87;;;0.50;99.90;-0.30;98338.00;;;;4959475;28;88844;-68
2023/11/28 05:51:22;;;;;;;17.20;10.43;;;0.20;99.90;-0.20;98330.00;;;;4950695;28;116629;-67
2023/11/28 05:53:48;;;;;;;14.73;8.67;;;0.20;99.90;-0.30;98343.00;;;;4954562;28;110106;-68
2023/11/28 05:56:13;;;;;;;12.43;9.07;;;0.10;99.90;-0.20;98347.00;;;;4951123;28;88057;-68
2023/11/28 05:58:40;;;;;;;16.80;9.33;;;0.10;99.90;-0.30;98339.00;;;;4956220;28;88177;-67
2023/11/28 06:01:06;;;;;;;14.10;8.20;;;0.20;99.90;-0.20;98357.00;;;;4955534;28;88844;-68
2023/11/28 06:03:32;;;;;;;12.97;7.63;;;0.10;99.90;-0.20;98348.00;;;;4956524;28;110242;-67
2023/11/28 06:05:58;;;;;;;11.47;7.87;;;0.10;99.90;-0.20;98349.00;;;;4958291;28;87065;-67
2023/11/28 06:08:24;;;;;;;12.13;8.03;;;0.10;99.90;-0.20;98350.00;;;;4952232;28;100131;-66
2023/11/28 06:10:50;;;;;;;12.27;8.27;;;0.10;99.90;-0.20;98358.00;;;;4953932;28;117385;-67
2023/11/28 06:13:16;;;;;;;14.37;8.43;;;0.20;99.90;-0.20;98364.00;;;;4950063;28;89081;-66
2023/11/28 06:15:42;;;;;;;9.27;7.00;;;0.10;99.90;-0.20;98365.00;;;;4954802;28;97048;-65
2023/11/28 06:18:10;;;;;;;13.30;8.73;;;0.20;99.90;-0.20;98372.00;;;;4952803;28;87760;-67
2023/11/28 06:20:36;;;;;;;13.00;8.33;;;0.10;99.90;-0.30;98371.00;;;;4956903;28;87827;-67
2023/11/28 06:23:03;;;;;;;13.37;8.07;;;0.00;99.90;-0.20;98365.00;;;;4955906;28;88079;-65
2023/11/28 06:25:29;;;;;;;10.93;7.77;;;0.10;99.90;-0.30;98358.00;;;;4966318;28;87716;-66
2023/11/28 06:27:55;;;;;;;12.23;7.87;;;1.00;99.90;-0.30;98368.00;;;;4959430;28;100917;-68
2023/11/28 06:30:21;;;;;;;12.23;8.83;;;0.00;99.90;-0.30;98384.00;;;;4953691;28;117980;-64
2023/11/28 06:32:46;;;;;;;12.20;8.90;;;0.10;99.90;-0.30;98383.00;;;;4955074;28;116333;-65
2023/11/28 06:35:12;;;;;;;11.77;7.33;;;0.00;99.90;-0.30;98381.00;;;;4955262;28;111211;-65
2023/11/28 06:37:38;;;;;;;13.67;8.60;;;0.00;99.90;-0.30;98380.00;;;;4953097;28;88887;-65
2023/11/28 06:40:05;;;;;;;13.00;8.40;;;0.00;99.90;-0.40;98387.00;;;;4954034;28;88686;-65
2023/11/28 06:42:31;;;;;;;12.30;7.90;;;0.00;99.90;-0.40;98399.00;;;;4948338;28;109497;-64
2023/11/28 06:44:56;;;;;;;9.73;7.20;;;0.00;99.90;-0.40;98385.00;;;;4966603;28;87971;-64
2023/11/28 06:47:22;;;;;;;13.83;8.30;;;-0.10;99.90;-0.40;98409.00;;;;4952408;28;89836;-65
2023/11/28 06:49:48;;;;;;;12.37;7.00;;;-0.10;99.90;-0.40;98413.00;;;;4956415;28;88077;-64
2023/11/28 06:52:14;;;;;;;12.83;7.07;;;-0.10;99.90;-0.40;98415.00;;;;4949647;28;121733;-64
2023/11/28 06:54:40;;;;;;;9.27;6.90;;;-0.10;99.90;-0.40;98409.00;;;;4958521;28;86941;-64
2023/11/28 06:57:06;;;;;;;11.47;6.87;;;0.00;99.90;-0.40;98417.00;;;;4959399;28;87852;-64
2023/11/28 06:59:33;;;;;;;8.70;6.73;;;0.00;99.90;-0.40;98413.00;;;;4955207;28;117250;-64
2023/11/28 07:01:59;;;;;;;9.77;7.60;;;-0.10;99.90;-0.40;98422.00;;;;4955823;28;88932;-67
2023/11/28 07:04:24;;;;;;;10.63;7.00;;;0.00;99.90;-0.40;98432.00;;;;4962243;28;87973;-64
2023/11/28 07:06:50;;;;;;;12.77;8.07;;;0.00;99.90;-0.50;98434.00;;;;4952455;28;107907;-65
2023/11/28 07:09:16;;;;;;;12.37;8.30;;;-0.10;99.90;-0.50;98433.00;;;;4952749;28;95329;-65
2023/11/28 07:11:42;;;;;;;14.80;7.83;;;-0.10;99.90;-0.40;98437.00;;;;4953948;28;87881;-65
2023/11/28 07:14:08;;;;;;;13.43;7.37;;;-0.10;99.90;-0.50;98430.00;;;;4954247;28;110546;-64
2023/11/28 07:16:34;;;;;;;11.17;7.40;;;-0.10;99.90;-0.50;98434.00;;;;4952666;28;103471;-65
2023/11/28 07:19:00;;;;;;;11.90;6.77;;;-0.10;99.90;-0.50;98439.00;;;;4955676;28;107374;-66
2023/11/28 07:21:26;;;;;;;9.87;7.07;;;-0.10;99.90;-0.50;98439.00;;;;4963875;28;87411;-65
2023/11/28 07:23:51;;;;;;;15.50;8.73;;;0.30;99.90;-0.50;98440.00;;;;4952746;28;111088;-64
2023/11/28 07:26:19;;;;;;;10.33;7.60;;;-0.10;99.90;-0.50;98446.00;;;;4951973;28;108332;-65
2023/11/28 07:28:45;;;;;;;9.97;6.93;;;-0.20;99.90;-0.60;98447.00;;;;4951911;28;88152;-66
2023/11/28 07:31:14;;;;;;;12.37;7.77;;;-0.20;99.90;-0.60;98456.00;;;;4954173;28;88432;-65
2023/11/28 07:33:39;;;;;;;12.60;8.50;;;-0.20;99.90;-0.60;98465.00;;;;4957539;28;91713;-64
2023/11/28 07:36:11;;;;;;;14.90;8.67;;;-0.10;99.90;-0.60;98466.00;;;;4954453;28;108504;-65
2023/11/28 07:38:37;;;;;;;9.97;6.67;;;-0.20;99.90;-0.60;98465.00;;;;4947670;28;88642;-64
2023/11/28 07:41:03;;;;;;;10.07;6.70;;;-0.10;99.90;-0.60;98463.00;;;;4962857;28;89229;-64
2023/11/28 07:43:29;;;;;;;11.10;7.33;;;-0.30;99.90;-0.60;98475.00;;;;4954988;28;87205;-64
2023/11/28 07:45:56;;;;;;;9.17;6.73;;;-0.30;99.90;-0.60;98482.00;;;;4953536;28;88135;-66
2023/11/28 07:48:22;;;;;;;7.60;6.17;;;-0.20;99.90;-0.60;98476.00;;;;4953512;28;88274;-64
2023/11/28 07:50:47;;;;;;;12.33;6.73;;;-0.30;99.90;-0.60;98479.00;;;;4956364;28;116092;-63
2023/11/28 07:53:13;;;;;;;12.80;6.57;;;-0.20;99.90;-0.60;98486.00;;;;4952978;28;90157;-64
2023/11/28 07:55:39;;;;;;;10.27;5.53;;;-0.20;99.90;-0.60;98486.00;;;;4958808;28;87862;-65
2023/11/28 07:58:04;;;;;;;13.73;7.53;;;-0.30;99.90;-0.60;98495.00;;;;4955023;28;115911;-65
2023/11/28 08:00:30;;;;;;;12.90;6.43;;;-0.30;99.90;-0.60;98502.00;;;;4956329;28;118095;-65
2023/11/28 08:02:57;;;;;;;12.20;6.40;;;-0.20;99.90;-0.60;98512.00;;;;4957664;28;88255;-65
2023/11/28 08:05:26;;;;;;;12.73;6.93;;;-0.50;99.90;-0.60;98502.00;;;;4962201;28;87689;-65
2023/11/28 08:07:51;;;;;;;9.60;6.43;;;-0.20;99.90;-0.60;98500.00;;;;4951900;28;117976;-64
2023/11/28 08:10:17;;;;;;;9.23;6.77;;;-0.20;99.90;-0.60;98507.00;;;;4952303;28;117935;-66
2023/11/28 08:12:43;;;;;;;14.33;7.97;;;0.20;99.90;-0.60;98512.00;;;;4958233;28;110710;-65
2023/11/28 08:15:10;;;;;;;16.20;7.77;;;-0.20;99.90;-0.60;98529.00;;;;4954632;28;88743;-65
2023/11/28 08:17:35;;;;;;;10.80;7.23;;;-0.20;99.90;-0.60;98535.00;;;;4960041;28;88127;-66
2023/11/28 08:20:02;;;;;;;15.07;8.00;;;-0.10;99.90;-0.60;98536.00;;;;4954942;28;115798;-65
2023/11/28 08:22:28;;;;;;;15.83;9.03;;;-0.20;99.90;-0.60;98536.00;;;;4956262;28;87826;-64
2023/11/28 08:24:55;;;;;;;10.83;7.57;;;-0.20;99.90;-0.60;98535.00;;;;4954328;28;106866;-65
2023/11/28 08:27:21;;;;;;;18.33;9.27;;;-0.20;99.90;-0.60;98539.00;;;;4959268;28;87794;-65
2023/11/28 08:29:47;;;;;;;15.50;7.90;;;-0.30;99.90;-0.60;98541.00;;;;4954126;28;117112;-65
2023/11/28 08:32:13;;;;;;;11.47;7.93;;;-0.30;99.90;-0.60;98541.00;;;;4955991;28;106974;-65
2023/11/28 08:34:38;;;;;;;15.80;8.27;;;-0.30;99.90;-0.60;98542.00;;;;4964150;28;95215;-65
2023/11/28 08:37:04;;;;;;;13.13;8.53;;;-0.30;99.90;-0.60;98549.00;;;;4959220;28;117305;-65
2023/11/28 08:39:30;;;;;;;16.23;8.87;;;-0.30;99.90;-0.60;98540.00;;;;4957723;28;115958;-64
2023/11/28 08:41:55;;;;;;;14.57;8.67;;;-0.30;99.90;-0.60;98550.00;;;;4957848;28;110559;-65
2023/11/28 08:44:21;;;;;;;11.00;7.73;;;-0.30;99.90;-0.50;98553.00;;;;4955091;28;87758;-66
2023/11/28 08:46:48;;;;;;;13.33;8.87;;;0.60;99.90;-0.50;98556.00;;;;4957947;28;88063;-65
2023/11/28 08:49:14;;;;;;;19.40;8.90;;;-0.20;99.90;-0.50;98560.00;;;;4954616;28;88688;-66
2023/11/28 08:51:41;;;;;;;15.13;9.53;;;-0.10;99.90;-0.50;98572.00;;;;4957276;28;87975;-65
2023/11/28 08:54:06;;;;;;;18.73;10.00;;;-0.20;99.90;-0.50;98565.00;;;;4955558;28;87910;-64
2023/11/28 08:56:32;;;;;;;13.00;8.90;;;-0.20;99.90;-0.50;98552.00;;;;4952073;28;108785;-65
2023/11/28 08:59:01;;;;;;;18.73;10.47;;;-0.20;99.90;-0.50;98565.00;;;;4951616;28;117819;-65
2023/11/28 09:01:26;;;;;;;17.17;9.77;;;-0.20;99.90;-0.50;98574.00;;;;4955394;28;108812;-65
2023/11/28 09:03:52;;;;;;;13.60;8.60;;;-0.10;99.90;-0.50;98576.00;;;;4949338;28;96709;-66
2023/11/28 09:06:18;;;;;;;14.87;10.00;;;-0.10;99.90;-0.50;98573.00;;;;4955634;28;88037;-65
2023/11/28 09:08:44;;;;;;;16.50;9.93;;;-0.20;99.90;-0.50;98565.00;;;;4955222;28;88237;-66
2023/11/28 09:11:12;;;;;;;13.40;8.57;;;-0.20;99.90;-0.50;98582.00;;;;4950582;28;113464;-66
2023/11/28 09:13:38;;;;;;;15.10;8.77;;;-0.20;99.90;-0.50;98582.00;;;;4953619;28;100257;-65
2023/11/28 09:16:08;;;;;;;14.53;10.23;;;-0.20;99.90;-0.40;98578.00;;;;4953662;28;117669;-67
2023/11/28 09:18:36;;;;;;;17.30;10.07;;;-0.10;99.90;-0.40;98583.00;;;;4953768;28;88256;-65
2023/11/28 09:21:04;;;;;;;13.60;8.17;;;-0.10;99.90;-0.40;98587.00;;;;4952274;28;87175;-64
2023/11/28 09:23:31;;;;;;;14.10;9.73;;;0.00;99.90;-0.40;98582.00;;;;4952635;28;87984;-64
2023/11/28 09:25:56;;;;;;;13.60;9.20;;;-0.10;99.90;-0.40;98597.00;;;;4951623;28;98696;-64
2023/11/28 09:28:22;;;;;;;13.00;8.77;;;-0.10;99.90;-0.30;98596.00;;;;4950977;28;117902;-66
2023/11/28 09:30:48;;;;;;;17.10;10.03;;;0.00;99.90;-0.40;98588.00;;;;4954319;28;87735;-65
2023/11/28 09:33:13;;;;;;;19.83;9.60;;;0.00;99.90;-0.40;98605.00;;;;4953657;28;109072;-65
2023/11/28 09:35:44;;;;;;;14.90;9.33;;;0.10;99.90;-0.40;98598.00;;;;4955871;28;118798;-64
2023/11/28 09:38:11;;;;;;;14.70;9.53;;;-0.10;99.90;-0.40;98606.00;;;;4954676;28;87719;-64
2023/11/28 09:40:39;;;;;;;16.70;10.07;;;-0.10;99.90;-0.40;98588.00;;;;4951893;28;87821;-63
2023/11/28 09:43:05;;;;;;;14.47;10.03;;;0.00;99.90;-0.40;98596.00;;;;4945680;28;109500;-65
2023/11/28 09:45:35;;;;;;;18.43;9.57;;;0.00;99.90;-0.40;98606.00;;;;4952034;28;87589;-63
2023/11/28 09:48:06;;;;;;;16.80;10.50;;;-0.10;99.90;-0.40;98609.00;;;;4954644;28;87825;-64
2023/11/28 09:50:32;;;;;;;17.27;10.47;;;0.00;99.90;-0.40;98598.00;;;;4951570;28;89083;-64
2023/11/28 09:52:59;;;;;;;19.53;10.83;;;0.00;99.90;-0.40;98612.00;;;;4954973;28;105634;-65
2023/11/28 09:55:26;;;;;;;16.57;9.10;;;-0.10;99.90;-0.40;98607.00;;;;4945328;28;91932;-65
2023/11/28 09:57:56;;;;;;;12.63;9.50;;;0.00;99.90;-0.40;98614.00;;;;4952272;28;117121;-65
2023/11/28 10:00:23;;;;;;;17.03;9.33;;;-0.10;99.90;-0.40;98610.00;;;;4954515;28;99471;-65
2023/11/28 10:02:52;;;;;;;17.43;10.43;;;-0.10;99.90;-0.40;98626.00;;;;4958272;28;87939;-64
2023/11/28 10:05:19;;;;;;;18.13;9.47;;;-0.10;99.90;-0.40;98619.00;;;;4947826;28;88765;-64
2023/11/28 10:07:48;;;;;;;13.20;9.53;;;-0.10;99.90;-0.40;98624.00;;;;4954213;28;88299;-64
2023/11/28 10:10:16;;;;;;;17.30;10.10;;;-0.10;99.90;-0.40;98628.00;;;;4955627;28;100304;-64
2023/11/28 10:12:42;;;;;;;18.97;10.67;;;0.00;99.90;-0.40;98628.00;;;;4951165;28;88482;-64
2023/11/28 10:15:09;;;;;;;16.17;10.97;;;-0.10;99.90;-0.40;98641.00;;;;4953926;28;101939;-65
2023/11/28 10:17:38;;;;;;;14.30;10.60;;;-0.10;99.90;-0.30;98623.00;;;;4955014;28;89018;-64
2023/11/28 10:20:06;;;;;;;22.43;10.77;;;-0.10;99.90;-0.30;98630.00;;;;4954128;28;87735;-64
2023/11/28 10:22:38;;;;;;;19.60;10.50;;;0.00;99.90;-0.30;98629.00;;;;4955294;28;88185;-64
2023/11/28 10:25:12;;;;;;;17.20;10.00;;;0.10;99.90;-0.30;98627.00;;;;4952590;28;87810;-66
2023/11/28 10:27:43;;;;;;;16.80;9.63;;;0.10;99.90;-0.30;98638.00;;;;4954842;28;88170;-64
2023/11/28 10:30:32;;;;;;;18.43;10.17;;;0.10;99.90;-0.30;98646.00;;;;4950053;28;87808;-66
2023/11/28 10:33:01;;;;;;;15.33;9.17;;;0.10;99.90;-0.20;98633.00;;;;4952225;28;88087;-65
2023/11/28 10:35:44;;;;;;;18.43;10.63;;;0.10;99.90;-0.20;98647.00;;;;4955582;28;86977;-65
2023/11/28 10:38:17;;;;;;;15.43;10.40;;;0.20;99.90;-0.20;98645.00;;;;4954198;28;88126;-65
2023/11/28 10:40:47;;;;;;;15.80;9.43;;;0.20;99.90;-0.20;98643.00;;;;4951177;28;87810;-65
2023/11/28 10:43:13;;;;;;;15.67;9.50;;;0.10;99.90;-0.20;98644.00;;;;4954547;28;88689;-66
2023/11/28 10:45:43;;;;;;;16.93;10.10;;;0.20;99.90;-0.20;98650.00;;;;4951338;28;87990;-66
2023/11/28 10:48:10;;;;;;;17.73;9.97;;;0.10;99.90;-0.20;98645.00;;;;4955742;28;87869;-65